sensor_id;sensor_type;location;lat;lon;timestamp;P1;durP1;ratioP1;P2;durP2;ratioP2
55483;SDS011;41345;51.704;5.146;2023-02-17T00:01:58;31.30;;;29.02;;
55483;SDS011;41345;51.704;5.146;2023-02-17T00:06:59;32.38;;;30.00;;
55483;SDS011;41345;51.704;5.146;2023-02-17T00:11:59;32.25;;;29.85;;
55483;SDS011;41345;51.704;5.146;2023-02-17T00:16:59;32.72;;;30.38;;
55483;SDS011;41345;51.704;5.146;2023-02-17T00:22:00;33.15;;;30.60;;
55483;SDS011;41345;51.704;5.146;2023-02-17T00:27:00;31.45;;;29.02;;
55483;SDS011;41345;51.704;5.146;2023-02-17T00:32:01;30.65;;;28.42;;
55483;SDS011;41345;51.704;5.146;2023-02-17T00:37:01;30.70;;;28.23;;
55483;SDS011;41345;51.704;5.146;2023-02-17T00:42:02;30.35;;;27.90;;
55483;SDS011;41345;51.704;5.146;2023-02-17T00:47:02;30.42;;;28.13;;
55483;SDS011;41345;51.704;5.146;2023-02-17T00:52:02;31.05;;;28.60;;
55483;SDS011;41345;51.704;5.146;2023-02-17T00:57:03;29.17;;;26.83;;
55483;SDS011;41345;51.704;5.146;2023-02-17T01:02:03;30.88;;;28.35;;
55483;SDS011;41345;51.704;5.146;2023-02-17T01:07:03;29.65;;;27.13;;
55483;SDS011;41345;51.704;5.146;2023-02-17T01:12:03;30.05;;;27.58;;
55483;SDS011;41345;51.704;5.146;2023-02-17T01:17:04;32.00;;;29.20;;
55483;SDS011;41345;51.704;5.146;2023-02-17T01:22:04;32.40;;;29.63;;
55483;SDS011;41345;51.704;5.146;2023-02-17T01:27:04;33.25;;;30.33;;
55483;SDS011;41345;51.704;5.146;2023-02-17T01:32:04;34.22;;;30.92;;
55483;SDS011;41345;51.704;5.146;2023-02-17T01:37:05;34.45;;;31.20;;
55483;SDS011;41345;51.704;5.146;2023-02-17T01:42:05;33.38;;;30.27;;
55483;SDS011;41345;51.704;5.146;2023-02-17T01:47:07;32.65;;;29.77;;
55483;SDS011;41345;51.704;5.146;2023-02-17T01:52:12;30.70;;;28.05;;
55483;SDS011;41345;51.704;5.146;2023-02-17T01:57:15;29.70;;;27.20;;
55483;SDS011;41345;51.704;5.146;2023-02-17T02:02:16;29.95;;;27.33;;
55483;SDS011;41345;51.704;5.146;2023-02-17T02:07:18;27.95;;;25.58;;
55483;SDS011;41345;51.704;5.146;2023-02-17T02:12:21;30.33;;;27.50;;
55483;SDS011;41345;51.704;5.146;2023-02-17T02:22:39;29.55;;;27.08;;
55483;SDS011;41345;51.704;5.146;2023-02-17T02:27:49;29.55;;;27.05;;
55483;SDS011;41345;51.704;5.146;2023-02-17T02:38:18;28.30;;;26.00;;
55483;SDS011;41345;51.704;5.146;2023-02-17T02:43:19;27.15;;;24.77;;
55483;SDS011;41345;51.704;5.146;2023-02-17T02:48:20;27.90;;;25.50;;
55483;SDS011;41345;51.704;5.146;2023-02-17T03:03:53;29.02;;;26.52;;
55483;SDS011;41345;51.704;5.146;2023-02-17T03:09:01;29.45;;;26.83;;
55483;SDS011;41345;51.704;5.146;2023-02-17T03:14:12;31.25;;;28.35;;
55483;SDS011;41345;51.704;5.146;2023-02-17T03:19:13;34.20;;;31.00;;
55483;SDS011;41345;51.704;5.146;2023-02-17T03:24:14;35.67;;;32.50;;
55483;SDS011;41345;51.704;5.146;2023-02-17T03:29:14;34.53;;;31.52;;
55483;SDS011;41345;51.704;5.146;2023-02-17T03:34:14;35.17;;;31.75;;
55483;SDS011;41345;51.704;5.146;2023-02-17T03:39:14;38.60;;;35.00;;
55483;SDS011;41345;51.704;5.146;2023-02-17T03:44:16;36.60;;;33.05;;
55483;SDS011;41345;51.704;5.146;2023-02-17T03:49:16;34.85;;;31.55;;
55483;SDS011;41345;51.704;5.146;2023-02-17T03:54:16;36.58;;;33.10;;
55483;SDS011;41345;51.704;5.146;2023-02-17T03:59:17;36.03;;;32.47;;
55483;SDS011;41345;51.704;5.146;2023-02-17T04:04:17;37.45;;;33.78;;
55483;SDS011;41345;51.704;5.146;2023-02-17T04:09:17;34.10;;;31.00;;
55483;SDS011;41345;51.704;5.146;2023-02-17T04:14:18;33.83;;;30.50;;
55483;SDS011;41345;51.704;5.146;2023-02-17T04:19:18;37.85;;;34.25;;
55483;SDS011;41345;51.704;5.146;2023-02-17T04:24:18;33.20;;;29.98;;
55483;SDS011;41345;51.704;5.146;2023-02-17T04:29:18;35.80;;;32.47;;
55483;SDS011;41345;51.704;5.146;2023-02-17T04:34:19;35.13;;;31.83;;
55483;SDS011;41345;51.704;5.146;2023-02-17T04:39:19;36.08;;;32.78;;
55483;SDS011;41345;51.704;5.146;2023-02-17T04:44:20;35.25;;;31.95;;
55483;SDS011;41345;51.704;5.146;2023-02-17T04:49:20;35.40;;;32.07;;
55483;SDS011;41345;51.704;5.146;2023-02-17T04:54:20;34.85;;;31.65;;
55483;SDS011;41345;51.704;5.146;2023-02-17T04:59:21;34.97;;;31.95;;
55483;SDS011;41345;51.704;5.146;2023-02-17T05:04:22;35.03;;;32.10;;
55483;SDS011;41345;51.704;5.146;2023-02-17T05:09:22;35.50;;;32.30;;
55483;SDS011;41345;51.704;5.146;2023-02-17T05:14:22;35.28;;;32.30;;
55483;SDS011;41345;51.704;5.146;2023-02-17T05:19:22;35.88;;;32.90;;
55483;SDS011;41345;51.704;5.146;2023-02-17T05:24:23;35.08;;;31.90;;
55483;SDS011;41345;51.704;5.146;2023-02-17T05:29:23;37.28;;;34.00;;
55483;SDS011;41345;51.704;5.146;2023-02-17T05:34:23;32.13;;;29.23;;
55483;SDS011;41345;51.704;5.146;2023-02-17T05:39:24;37.13;;;33.92;;
55483;SDS011;41345;51.704;5.146;2023-02-17T05:44:24;36.38;;;33.17;;
55483;SDS011;41345;51.704;5.146;2023-02-17T05:49:25;37.88;;;34.58;;
55483;SDS011;41345;51.704;5.146;2023-02-17T05:54:25;38.95;;;35.40;;
55483;SDS011;41345;51.704;5.146;2023-02-17T05:59:25;38.60;;;35.22;;
55483;SDS011;41345;51.704;5.146;2023-02-17T06:04:26;39.17;;;35.77;;
55483;SDS011;41345;51.704;5.146;2023-02-17T06:09:26;37.40;;;34.20;;
55483;SDS011;41345;51.704;5.146;2023-02-17T06:14:26;40.03;;;36.53;;
55483;SDS011;41345;51.704;5.146;2023-02-17T06:19:27;40.65;;;37.08;;
55483;SDS011;41345;51.704;5.146;2023-02-17T06:24:27;40.80;;;36.90;;
55483;SDS011;41345;51.704;5.146;2023-02-17T06:29:27;39.20;;;35.80;;
55483;SDS011;41345;51.704;5.146;2023-02-17T06:34:28;37.95;;;34.53;;
55483;SDS011;41345;51.704;5.146;2023-02-17T06:39:28;38.00;;;34.75;;
55483;SDS011;41345;51.704;5.146;2023-02-17T06:44:28;40.33;;;36.45;;
55483;SDS011;41345;51.704;5.146;2023-02-17T06:49:30;37.55;;;34.28;;
55483;SDS011;41345;51.704;5.146;2023-02-17T06:54:30;38.65;;;35.13;;
55483;SDS011;41345;51.704;5.146;2023-02-17T06:59:31;35.95;;;32.70;;
55483;SDS011;41345;51.704;5.146;2023-02-17T07:04:31;36.92;;;33.65;;
55483;SDS011;41345;51.704;5.146;2023-02-17T07:09:31;37.05;;;33.55;;
55483;SDS011;41345;51.704;5.146;2023-02-17T07:14:32;36.45;;;33.17;;
55483;SDS011;41345;51.704;5.146;2023-02-17T07:19:33;38.05;;;34.65;;
55483;SDS011;41345;51.704;5.146;2023-02-17T07:24:34;36.85;;;33.65;;
55483;SDS011;41345;51.704;5.146;2023-02-17T07:29:34;36.03;;;32.93;;
55483;SDS011;41345;51.704;5.146;2023-02-17T07:34:35;35.63;;;32.67;;
55483;SDS011;41345;51.704;5.146;2023-02-17T07:39:36;36.25;;;32.97;;
55483;SDS011;41345;51.704;5.146;2023-02-17T07:44:36;34.37;;;31.50;;
55483;SDS011;41345;51.704;5.146;2023-02-17T07:49:36;33.75;;;30.95;;
55483;SDS011;41345;51.704;5.146;2023-02-17T07:54:37;35.47;;;32.53;;
55483;SDS011;41345;51.704;5.146;2023-02-17T07:59:37;33.95;;;31.25;;
55483;SDS011;41345;51.704;5.146;2023-02-17T08:04:37;34.45;;;31.33;;
55483;SDS011;41345;51.704;5.146;2023-02-17T08:09:38;33.80;;;31.00;;
55483;SDS011;41345;51.704;5.146;2023-02-17T08:14:57;34.25;;;31.45;;
55483;SDS011;41345;51.704;5.146;2023-02-17T08:19:58;34.17;;;31.07;;
55483;SDS011;41345;51.704;5.146;2023-02-17T08:24:58;32.65;;;29.90;;
55483;SDS011;41345;51.704;5.146;2023-02-17T08:29:58;30.95;;;28.45;;
55483;SDS011;41345;51.704;5.146;2023-02-17T08:34:59;31.80;;;29.40;;
55483;SDS011;41345;51.704;5.146;2023-02-17T08:40:00;30.08;;;27.67;;
55483;SDS011;41345;51.704;5.146;2023-02-17T08:45:02;28.20;;;25.88;;
55483;SDS011;41345;51.704;5.146;2023-02-17T08:50:03;27.67;;;25.48;;
55483;SDS011;41345;51.704;5.146;2023-02-17T08:55:04;27.10;;;25.05;;
55483;SDS011;41345;51.704;5.146;2023-02-17T09:00:05;23.63;;;21.92;;
55483;SDS011;41345;51.704;5.146;2023-02-17T09:05:05;23.35;;;21.55;;
55483;SDS011;41345;51.704;5.146;2023-02-17T09:10:07;20.77;;;18.98;;
55483;SDS011;41345;51.704;5.146;2023-02-17T09:15:07;21.27;;;19.60;;
55483;SDS011;41345;51.704;5.146;2023-02-17T09:20:09;21.25;;;19.45;;
55483;SDS011;41345;51.704;5.146;2023-02-17T09:25:09;19.33;;;17.83;;
55483;SDS011;41345;51.704;5.146;2023-02-17T09:30:10;17.15;;;15.70;;
55483;SDS011;41345;51.704;5.146;2023-02-17T09:35:11;17.20;;;15.68;;
55483;SDS011;41345;51.704;5.146;2023-02-17T09:40:21;17.40;;;16.00;;
55483;SDS011;41345;51.704;5.146;2023-02-17T09:45:25;17.38;;;15.98;;
55483;SDS011;41345;51.704;5.146;2023-02-17T09:50:28;16.63;;;15.43;;
55483;SDS011;41345;51.704;5.146;2023-02-17T09:55:32;15.25;;;14.05;;
55483;SDS011;41345;51.704;5.146;2023-02-17T10:00:37;17.10;;;15.48;;
55483;SDS011;41345;51.704;5.146;2023-02-17T10:05:40;15.63;;;14.32;;
55483;SDS011;41345;51.704;5.146;2023-02-17T10:15:43;15.25;;;13.95;;
55483;SDS011;41345;51.704;5.146;2023-02-17T10:20:54;14.55;;;13.35;;
55483;SDS011;41345;51.704;5.146;2023-02-17T10:31:33;15.27;;;13.93;;
55483;SDS011;41345;51.704;5.146;2023-02-17T10:36:52;15.13;;;13.82;;
55483;SDS011;41345;51.704;5.146;2023-02-17T10:41:55;16.30;;;14.80;;
55483;SDS011;41345;51.704;5.146;2023-02-17T10:46:56;16.45;;;15.05;;
55483;SDS011;41345;51.704;5.146;2023-02-17T10:52:00;12.43;;;11.32;;
55483;SDS011;41345;51.704;5.146;2023-02-17T10:57:02;14.32;;;13.02;;
55483;SDS011;41345;51.704;5.146;2023-02-17T11:02:15;15.38;;;14.07;;
55483;SDS011;41345;51.704;5.146;2023-02-17T11:07:17;13.98;;;12.77;;
55483;SDS011;41345;51.704;5.146;2023-02-17T11:12:26;14.85;;;13.52;;
55483;SDS011;41345;51.704;5.146;2023-02-17T11:17:28;13.98;;;12.73;;
55483;SDS011;41345;51.704;5.146;2023-02-17T11:27:36;14.18;;;13.05;;
55483;SDS011;41345;51.704;5.146;2023-02-17T11:32:36;12.68;;;11.40;;
55483;SDS011;41345;51.704;5.146;2023-02-17T11:37:37;12.85;;;11.55;;
55483;SDS011;41345;51.704;5.146;2023-02-17T12:13:51;12.07;;;10.88;;
55483;SDS011;41345;51.704;5.146;2023-02-17T12:19:21;13.93;;;12.68;;
55483;SDS011;41345;51.704;5.146;2023-02-17T12:24:31;14.80;;;13.30;;
55483;SDS011;41345;51.704;5.146;2023-02-17T12:34:52;12.35;;;11.25;;
55483;SDS011;41345;51.704;5.146;2023-02-17T12:40:02;11.88;;;10.70;;
55483;SDS011;41345;51.704;5.146;2023-02-17T12:45:09;13.27;;;12.18;;
55483;SDS011;41345;51.704;5.146;2023-02-17T12:50:30;13.65;;;12.25;;
55483;SDS011;41345;51.704;5.146;2023-02-17T13:10:39;10.93;;;9.82;;
55483;SDS011;41345;51.704;5.146;2023-02-17T13:15:43;11.83;;;10.33;;
55483;SDS011;41345;51.704;5.146;2023-02-17T13:26:00;11.68;;;10.45;;
55483;SDS011;41345;51.704;5.146;2023-02-17T13:31:14;13.10;;;11.65;;
55483;SDS011;41345;51.704;5.146;2023-02-17T13:36:19;12.82;;;11.80;;
55483;SDS011;41345;51.704;5.146;2023-02-17T13:41:20;13.43;;;12.20;;
55483;SDS011;41345;51.704;5.146;2023-02-17T13:46:22;14.73;;;13.23;;
55483;SDS011;41345;51.704;5.146;2023-02-17T13:51:26;14.82;;;13.43;;
55483;SDS011;41345;51.704;5.146;2023-02-17T13:56:28;16.13;;;13.95;;
55483;SDS011;41345;51.704;5.146;2023-02-17T14:01:28;14.85;;;13.35;;
55483;SDS011;41345;51.704;5.146;2023-02-17T14:06:30;17.40;;;14.77;;
55483;SDS011;41345;51.704;5.146;2023-02-17T14:11:31;15.15;;;13.63;;
55483;SDS011;41345;51.704;5.146;2023-02-17T14:16:35;15.05;;;13.70;;
55483;SDS011;41345;51.704;5.146;2023-02-17T14:21:37;16.08;;;14.77;;
55483;SDS011;41345;51.704;5.146;2023-02-17T14:26:40;15.38;;;13.85;;
55483;SDS011;41345;51.704;5.146;2023-02-17T14:31:42;13.03;;;11.70;;
55483;SDS011;41345;51.704;5.146;2023-02-17T14:36:43;14.85;;;12.73;;
55483;SDS011;41345;51.704;5.146;2023-02-17T14:41:43;13.90;;;12.50;;
55483;SDS011;41345;51.704;5.146;2023-02-17T14:46:43;13.52;;;12.25;;
55483;SDS011;41345;51.704;5.146;2023-02-17T14:51:44;15.27;;;13.65;;
55483;SDS011;41345;51.704;5.146;2023-02-17T15:02:08;14.02;;;12.55;;
55483;SDS011;41345;51.704;5.146;2023-02-17T15:07:14;15.75;;;14.13;;
55483;SDS011;41345;51.704;5.146;2023-02-17T15:12:16;15.00;;;12.93;;
55483;SDS011;41345;51.704;5.146;2023-02-17T15:17:17;13.77;;;12.50;;
55483;SDS011;41345;51.704;5.146;2023-02-17T15:22:17;15.07;;;13.60;;
55483;SDS011;41345;51.704;5.146;2023-02-17T15:27:17;15.30;;;13.90;;
55483;SDS011;41345;51.704;5.146;2023-02-17T15:32:18;13.98;;;12.23;;
55483;SDS011;41345;51.704;5.146;2023-02-17T15:37:18;17.80;;;12.40;;
55483;SDS011;41345;51.704;5.146;2023-02-17T15:42:19;15.07;;;11.88;;
55483;SDS011;41345;51.704;5.146;2023-02-17T15:47:19;14.40;;;13.05;;
55483;SDS011;41345;51.704;5.146;2023-02-17T15:52:20;15.38;;;13.52;;
55483;SDS011;41345;51.704;5.146;2023-02-17T15:57:23;14.95;;;13.57;;
55483;SDS011;41345;51.704;5.146;2023-02-17T16:02:24;17.40;;;15.50;;
55483;SDS011;41345;51.704;5.146;2023-02-17T16:07:24;18.77;;;14.93;;
55483;SDS011;41345;51.704;5.146;2023-02-17T16:12:25;19.10;;;17.38;;
55483;SDS011;41345;51.704;5.146;2023-02-17T16:17:26;19.92;;;18.25;;
55483;SDS011;41345;51.704;5.146;2023-02-17T16:22:26;19.95;;;18.15;;
55483;SDS011;41345;51.704;5.146;2023-02-17T16:27:29;20.60;;;18.75;;
55483;SDS011;41345;51.704;5.146;2023-02-17T16:32:29;21.13;;;18.90;;
55483;SDS011;41345;51.704;5.146;2023-02-17T16:37:29;20.20;;;18.25;;
55483;SDS011;41345;51.704;5.146;2023-02-17T16:42:30;20.95;;;19.10;;
55483;SDS011;41345;51.704;5.146;2023-02-17T16:47:30;19.65;;;17.65;;
55483;SDS011;41345;51.704;5.146;2023-02-17T16:52:31;19.77;;;17.77;;
55483;SDS011;41345;51.704;5.146;2023-02-17T16:57:31;20.95;;;19.15;;
55483;SDS011;41345;51.704;5.146;2023-02-17T17:02:33;19.52;;;17.67;;
55483;SDS011;41345;51.704;5.146;2023-02-17T17:07:33;20.00;;;18.05;;
55483;SDS011;41345;51.704;5.146;2023-02-17T17:12:34;20.80;;;18.73;;
55483;SDS011;41345;51.704;5.146;2023-02-17T17:17:39;20.48;;;18.42;;
55483;SDS011;41345;51.704;5.146;2023-02-17T17:22:40;21.80;;;19.77;;
55483;SDS011;41345;51.704;5.146;2023-02-17T17:27:41;22.27;;;19.73;;
55483;SDS011;41345;51.704;5.146;2023-02-17T17:32:41;22.35;;;20.27;;
55483;SDS011;41345;51.704;5.146;2023-02-17T17:37:42;22.92;;;21.02;;
55483;SDS011;41345;51.704;5.146;2023-02-17T17:42:42;23.27;;;20.92;;
55483;SDS011;41345;51.704;5.146;2023-02-17T17:47:43;25.20;;;22.60;;
55483;SDS011;41345;51.704;5.146;2023-02-17T17:52:44;24.60;;;22.20;;
55483;SDS011;41345;51.704;5.146;2023-02-17T17:57:44;23.98;;;21.67;;
55483;SDS011;41345;51.704;5.146;2023-02-17T18:02:44;26.17;;;22.65;;
55483;SDS011;41345;51.704;5.146;2023-02-17T18:07:45;25.33;;;23.23;;
55483;SDS011;41345;51.704;5.146;2023-02-17T18:12:46;26.83;;;24.45;;
55483;SDS011;41345;51.704;5.146;2023-02-17T18:17:47;26.77;;;24.48;;
55483;SDS011;41345;51.704;5.146;2023-02-17T18:22:47;26.75;;;24.20;;
55483;SDS011;41345;51.704;5.146;2023-02-17T18:27:48;27.60;;;24.88;;
55483;SDS011;41345;51.704;5.146;2023-02-17T18:32:49;28.00;;;25.45;;
55483;SDS011;41345;51.704;5.146;2023-02-17T18:37:49;28.10;;;25.42;;
55483;SDS011;41345;51.704;5.146;2023-02-17T18:42:49;29.02;;;26.38;;
55483;SDS011;41345;51.704;5.146;2023-02-17T18:47:50;31.52;;;28.52;;
55483;SDS011;41345;51.704;5.146;2023-02-17T18:52:50;30.98;;;27.95;;
55483;SDS011;41345;51.704;5.146;2023-02-17T18:57:51;29.70;;;27.02;;
55483;SDS011;41345;51.704;5.146;2023-02-17T19:02:51;31.75;;;28.70;;
55483;SDS011;41345;51.704;5.146;2023-02-17T19:07:51;31.75;;;28.70;;
55483;SDS011;41345;51.704;5.146;2023-02-17T19:12:52;31.67;;;28.58;;
55483;SDS011;41345;51.704;5.146;2023-02-17T19:17:55;31.58;;;28.30;;
55483;SDS011;41345;51.704;5.146;2023-02-17T19:22:56;33.67;;;30.13;;
55483;SDS011;41345;51.704;5.146;2023-02-17T19:27:56;37.53;;;33.72;;
55483;SDS011;41345;51.704;5.146;2023-02-17T19:32:56;38.00;;;33.80;;
55483;SDS011;41345;51.704;5.146;2023-02-17T19:37:57;37.43;;;33.83;;
55483;SDS011;41345;51.704;5.146;2023-02-17T19:42:57;39.90;;;35.45;;
55483;SDS011;41345;51.704;5.146;2023-02-17T19:47:57;39.13;;;34.85;;
55483;SDS011;41345;51.704;5.146;2023-02-17T19:52:58;38.77;;;35.03;;
55483;SDS011;41345;51.704;5.146;2023-02-17T19:57:58;37.13;;;33.15;;
55483;SDS011;41345;51.704;5.146;2023-02-17T20:02:58;36.92;;;33.45;;
55483;SDS011;41345;51.704;5.146;2023-02-17T20:07:58;39.75;;;33.03;;
55483;SDS011;41345;51.704;5.146;2023-02-17T20:12:59;37.35;;;33.45;;
55483;SDS011;41345;51.704;5.146;2023-02-17T20:18:00;38.03;;;34.08;;
55483;SDS011;41345;51.704;5.146;2023-02-17T20:23:00;37.03;;;33.13;;
55483;SDS011;41345;51.704;5.146;2023-02-17T20:28:00;37.92;;;33.45;;
55483;SDS011;41345;51.704;5.146;2023-02-17T20:33:01;38.72;;;34.60;;
55483;SDS011;41345;51.704;5.146;2023-02-17T20:38:01;39.65;;;35.45;;
55483;SDS011;41345;51.704;5.146;2023-02-17T20:43:02;39.50;;;35.40;;
55483;SDS011;41345;51.704;5.146;2023-02-17T20:48:03;41.22;;;37.03;;
55483;SDS011;41345;51.704;5.146;2023-02-17T20:53:03;40.33;;;36.00;;
55483;SDS011;41345;51.704;5.146;2023-02-17T20:58:03;42.42;;;37.78;;
55483;SDS011;41345;51.704;5.146;2023-02-17T21:03:04;43.15;;;38.42;;
55483;SDS011;41345;51.704;5.146;2023-02-17T21:08:04;44.50;;;39.45;;
55483;SDS011;41345;51.704;5.146;2023-02-17T21:13:04;47.33;;;40.40;;
55483;SDS011;41345;51.704;5.146;2023-02-17T21:18:05;51.23;;;42.67;;
55483;SDS011;41345;51.704;5.146;2023-02-17T21:23:05;49.88;;;40.15;;
55483;SDS011;41345;51.704;5.146;2023-02-17T21:28:07;51.92;;;42.28;;
55483;SDS011;41345;51.704;5.146;2023-02-17T21:33:07;41.92;;;37.35;;
55483;SDS011;41345;51.704;5.146;2023-02-17T21:38:07;48.10;;;40.65;;
55483;SDS011;41345;51.704;5.146;2023-02-17T21:43:09;49.45;;;39.38;;
55483;SDS011;41345;51.704;5.146;2023-02-17T21:48:28;46.53;;;38.90;;
55483;SDS011;41345;51.704;5.146;2023-02-17T21:53:29;44.58;;;36.50;;
55483;SDS011;41345;51.704;5.146;2023-02-17T21:58:29;45.97;;;37.65;;
55483;SDS011;41345;51.704;5.146;2023-02-17T22:03:30;49.38;;;38.28;;
55483;SDS011;41345;51.704;5.146;2023-02-17T22:08:30;45.07;;;36.47;;
55483;SDS011;41345;51.704;5.146;2023-02-17T22:13:30;43.92;;;36.65;;
55483;SDS011;41345;51.704;5.146;2023-02-17T22:18:31;42.50;;;35.90;;
55483;SDS011;41345;51.704;5.146;2023-02-17T22:23:32;42.25;;;37.35;;
55483;SDS011;41345;51.704;5.146;2023-02-17T22:28:32;46.42;;;37.30;;
55483;SDS011;41345;51.704;5.146;2023-02-17T22:33:33;45.90;;;35.37;;
55483;SDS011;41345;51.704;5.146;2023-02-17T22:38:33;44.35;;;37.10;;
55483;SDS011;41345;51.704;5.146;2023-02-17T22:43:34;47.28;;;37.88;;
55483;SDS011;41345;51.704;5.146;2023-02-17T22:48:35;48.97;;;39.28;;
55483;SDS011;41345;51.704;5.146;2023-02-17T22:53:36;46.95;;;39.90;;
55483;SDS011;41345;51.704;5.146;2023-02-17T22:58:37;53.63;;;41.92;;
55483;SDS011;41345;51.704;5.146;2023-02-17T23:03:37;52.35;;;41.40;;
55483;SDS011;41345;51.704;5.146;2023-02-17T23:08:38;54.20;;;41.50;;
55483;SDS011;41345;51.704;5.146;2023-02-17T23:13:38;54.83;;;43.25;;
55483;SDS011;41345;51.704;5.146;2023-02-17T23:18:39;58.13;;;43.00;;
55483;SDS011;41345;51.704;5.146;2023-02-17T23:23:39;64.15;;;44.03;;
55483;SDS011;41345;51.704;5.146;2023-02-17T23:28:39;60.60;;;42.40;;
55483;SDS011;41345;51.704;5.146;2023-02-17T23:33:40;65.72;;;44.67;;
55483;SDS011;41345;51.704;5.146;2023-02-17T23:38:40;62.75;;;46.47;;
55483;SDS011;41345;51.704;5.146;2023-02-17T23:43:41;58.90;;;42.95;;
55483;SDS011;41345;51.704;5.146;2023-02-17T23:48:41;60.25;;;42.83;;
55483;SDS011;41345;51.704;5.146;2023-02-17T23:53:41;56.93;;;43.80;;
55483;SDS011;41345;51.704;5.146;2023-02-17T23:58:42;60.00;;;42.90;;
